Time,TemperatureF,DewpointF,PressureIn,WindDirection,WindDirectionDegrees,WindSpeedMPH,WindSpeedGustMPH,Humidity,HourlyPrecipIn,Conditions,Clouds,dailyrainin,SoftwareType,DateUTC
2013-05-26 00:01:00,64.9,57.5,30.18,West,261,6.0,6.0,77,0.00,,---,0.00,VWS V14.01,2013-05-26 04:01:00,
2013-05-26 00:02:00,65.0,57.6,30.18,West,261,6.0,6.0,77,0.00,,---,0.00,VWS V14.01,2013-05-26 04:02:00,
2013-05-26 00:07:00,65.3,58.3,30.18,WNW,285,7.0,7.0,78,0.00,,---,0.00,VWS V14.01,2013-05-26 04:07:00,
2013-05-26 00:12:00,64.5,57.1,30.18,WNW,287,5.0,7.0,77,0.00,,---,0.00,VWS V14.01,2013-05-26 04:12:00,
2013-05-26 00:17:00,64.0,57.0,30.17,West,281,4.0,7.0,78,0.00,,---,0.00,VWS V14.01,2013-05-26 04:17:00,
2013-05-26 00:22:00,63.6,56.6,30.17,West,275,6.0,7.0,78,0.00,,---,0.00,VWS V14.01,2013-05-26 04:22:00,
2013-05-26 00:27:00,63.5,56.9,30.18,West,278,3.0,7.0,79,0.00,,---,0.00,VWS V14.01,2013-05-26 04:27:00,
2013-05-26 00:32:00,63.6,56.6,30.18,West,277,4.0,5.0,78,0.00,,---,0.00,VWS V14.01,2013-05-26 04:32:00,
2013-05-26 00:37:00,64.0,57.4,30.17,West,271,4.0,5.0,79,0.00,,---,0.00,VWS V14.01,2013-05-26 04:37:00,
2013-05-26 00:42:00,64.2,57.9,30.17,West,271,3.0,5.0,80,0.00,,---,0.00,VWS V14.01,2013-05-26 04:42:00,
2013-05-26 00:47:00,64.0,57.4,30.17,West,271,0.0,5.0,79,0.00,,---,0.00,VWS V14.01,2013-05-26 04:47:00,
2013-05-26 00:52:00,63.8,57.5,30.17,West,271,0.0,5.0,80,0.00,,---,0.00,VWS V14.01,2013-05-26 04:52:00,
2013-05-26 00:57:00,63.7,57.4,30.17,West,271,0.0,0.0,80,0.00,,---,0.00,VWS V14.01,2013-05-26 04:57:00,
2013-05-26 01:02:00,63.7,57.4,30.17,West,271,1.0,2.0,80,0.00,,---,0.00,VWS V14.01,2013-05-26 05:02:00,
2013-05-26 01:08:00,63.7,57.8,30.17,West,271,1.0,2.0,81,0.00,,---,0.00,VWS V14.01,2013-05-26 05:08:00,
2013-05-26 01:13:00,63.7,57.8,30.17,West,271,0.0,2.0,81,0.00,,---,0.00,VWS V14.01,2013-05-26 05:13:00,
2013-05-26 01:18:00,63.6,58.0,30.16,West,271,0.0,2.0,82,0.00,,---,0.00,VWS V14.01,2013-05-26 05:18:00,
2013-05-26 01:23:00,63.5,58.2,30.16,West,271,4.0,4.0,83,0.00,,---,0.00,VWS V14.01,2013-05-26 05:23:00,
2013-05-26 01:28:00,63.8,58.9,30.16,West,271,4.0,5.0,84,0.00,,---,0.00,VWS V14.01,2013-05-26 05:28:00,
2013-05-26 01:33:00,63.7,58.8,30.16,West,259,1.0,5.0,84,0.00,,---,0.00,VWS V14.01,2013-05-26 05:33:00,
2013-05-26 01:38:00,63.6,58.7,30.16,WSW,256,3.0,5.0,84,0.00,,---,0.00,VWS V14.01,2013-05-26 05:38:00,
2013-05-26 01:43:00,63.5,58.6,30.16,West,269,2.0,5.0,84,0.00,,---,0.00,VWS V14.01,2013-05-26 05:43:00,
2013-05-26 01:48:00,63.6,58.7,30.15,WSW,255,4.0,5.0,84,0.00,,---,0.00,VWS V14.01,2013-05-26 05:48:00,
2013-05-26 01:53:00,63.5,58.6,30.15,WSW,249,1.0,5.0,84,0.00,,---,0.00,VWS V14.01,2013-05-26 05:53:00,
2013-05-26 01:58:00,63.4,58.2,30.15,WSW,238,3.0,4.0,83,0.00,,---,0.00,VWS V14.01,2013-05-26 05:58:00,
2013-05-26 02:03:00,63.5,58.2,30.15,SW,236,3.0,4.0,83,0.00,,---,0.00,VWS V14.01,2013-05-26 06:03:00,
2013-05-26 02:08:00,63.7,58.5,30.15,SW,233,5.0,6.0,83,0.00,,---,0.00,VWS V14.01,2013-05-26 06:08:00,
2013-05-26 02:13:00,63.9,58.6,30.15,WSW,242,4.0,6.0,83,0.00,,---,0.00,VWS V14.01,2013-05-26 06:13:00,
2013-05-26 02:18:00,64.0,58.7,30.15,WSW,243,3.0,6.0,83,0.00,,---,0.00,VWS V14.01,2013-05-26 06:18:00,
2013-05-26 02:24:00,64.1,58.8,30.15,WSW,246,2.0,6.0,83,0.00,,---,0.00,VWS V14.01,2013-05-26 06:24:00,
2013-05-26 02:29:00,64.2,58.9,30.15,WSW,240,4.0,6.0,83,0.00,,---,0.00,VWS V14.01,2013-05-26 06:29:00,
2013-05-26 02:34:00,64.3,59.0,30.15,West,261,4.0,6.0,83,0.00,,---,0.00,VWS V14.01,2013-05-26 06:34:00,
2013-05-26 02:39:00,64.4,59.1,30.15,West,263,3.0,6.0,83,0.00,,---,0.00,VWS V14.01,2013-05-26 06:39:00,
2013-05-26 02:44:00,64.8,59.9,30.15,West,263,2.0,6.0,84,0.00,,---,0.00,VWS V14.01,2013-05-26 06:44:00,
2013-05-26 02:49:00,64.7,60.1,30.15,West,263,2.0,6.0,85,0.00,,---,0.00,VWS V14.01,2013-05-26 06:49:00,
2013-05-26 02:54:00,64.5,59.9,30.15,West,263,1.0,6.0,85,0.00,,---,0.00,VWS V14.01,2013-05-26 06:54:00,
2013-05-26 02:59:00,64.3,59.7,30.14,West,263,1.0,3.0,85,0.00,,---,0.00,VWS V14.01,2013-05-26 06:59:00,
2013-05-26 03:04:00,64.0,59.7,30.14,West,262,0.0,4.0,86,0.00,,---,0.00,VWS V14.01,2013-05-26 07:04:00,
2013-05-26 03:09:00,64.0,59.7,30.14,West,262,1.0,4.0,86,0.00,,---,0.00,VWS V14.01,2013-05-26 07:09:00,
2013-05-26 03:14:00,63.7,59.4,30.15,West,263,3.0,4.0,86,0.00,,---,0.00,VWS V14.01,2013-05-26 07:14:00,
2013-05-26 03:19:00,63.5,59.6,30.14,West,263,3.0,4.0,87,0.00,,---,0.00,VWS V14.01,2013-05-26 07:19:00,
2013-05-26 03:24:00,63.2,59.0,30.15,West,269,4.0,4.0,86,0.00,,---,0.00,VWS V14.01,2013-05-26 07:24:00,
2013-05-26 03:29:00,63.1,58.8,30.14,West,273,3.0,4.0,86,0.00,,---,0.00,VWS V14.01,2013-05-26 07:29:00,
2013-05-26 03:35:00,62.9,59.0,30.15,West,274,3.0,4.0,87,0.00,,---,0.00,VWS V14.01,2013-05-26 07:35:00,
2013-05-26 03:40:00,62.8,58.9,30.15,West,275,2.0,4.0,87,0.00,,---,0.00,VWS V14.01,2013-05-26 07:40:00,
2013-05-26 03:45:00,62.6,58.7,30.15,West,275,2.0,4.0,87,0.00,,---,0.00,VWS V14.01,2013-05-26 07:45:00,
2013-05-26 03:50:00,62.4,58.5,30.14,West,275,1.0,4.0,87,0.00,,---,0.00,VWS V14.01,2013-05-26 07:50:00,
2013-05-26 03:55:00,62.1,57.9,30.14,West,278,2.0,4.0,86,0.00,,---,0.00,VWS V14.01,2013-05-26 07:55:00,
2013-05-26 04:00:00,62.1,58.2,30.15,West,280,2.0,4.0,87,0.00,,---,0.00,VWS V14.01,2013-05-26 08:00:00,
2013-05-26 04:05:00,62.0,58.1,30.14,West,281,2.0,4.0,87,0.00,,---,0.00,VWS V14.01,2013-05-26 08:05:00,
2013-05-26 04:10:00,61.9,58.0,30.15,NW,318,4.0,5.0,87,0.00,,---,0.00,VWS V14.01,2013-05-26 08:10:00,
2013-05-26 04:15:00,61.8,57.9,30.15,NW,325,4.0,5.0,87,0.00,,---,0.00,VWS V14.01,2013-05-26 08:15:00,
2013-05-26 04:20:00,61.4,57.5,30.15,NNW,331,3.0,5.0,87,0.00,,---,0.00,VWS V14.01,2013-05-26 08:20:00,
2013-05-26 04:25:00,61.0,57.4,30.15,NNW,333,5.0,6.0,88,0.00,,---,0.00,VWS V14.01,2013-05-26 08:25:00,
2013-05-26 04:30:00,60.5,56.9,30.15,NNW,331,5.0,6.0,88,0.00,,---,0.00,VWS V14.01,2013-05-26 08:30:00,
2013-05-26 04:36:00,60.0,56.4,30.15,NW,325,6.0,7.0,88,0.00,,---,0.00,VWS V14.01,2013-05-26 08:36:00,
2013-05-26 04:41:00,59.6,56.4,30.15,NW,317,4.0,7.0,89,0.00,,---,0.00,VWS V14.01,2013-05-26 08:41:00,
2013-05-26 04:46:00,59.4,56.2,30.15,NW,312,5.0,7.0,89,0.00,,---,0.00,VWS V14.01,2013-05-26 08:46:00,
2013-05-26 04:51:00,59.2,56.0,30.15,NW,323,3.0,7.0,89,0.00,,---,0.00,VWS V14.01,2013-05-26 08:51:00,
2013-05-26 04:56:00,59.0,55.8,30.15,NW,317,3.0,7.0,89,0.00,,---,0.00,VWS V14.01,2013-05-26 08:56:00,
2013-05-26 05:01:00,58.8,55.6,30.15,NW,323,2.0,6.0,89,0.00,,---,0.00,VWS V14.01,2013-05-26 09:01:00,
2013-05-26 05:06:00,58.6,55.4,30.16,NW,312,2.0,6.0,89,0.00,,---,0.00,VWS V14.01,2013-05-26 09:06:00,
2013-05-26 05:11:00,58.5,55.6,30.16,NW,312,1.0,6.0,90,0.00,,---,0.00,VWS V14.01,2013-05-26 09:11:00,
2013-05-26 05:16:00,58.4,55.5,30.16,NW,313,0.0,6.0,90,0.00,,---,0.00,VWS V14.01,2013-05-26 09:16:00,
2013-05-26 05:21:00,58.6,55.7,30.15,NW,313,2.0,6.0,90,0.00,,---,0.00,VWS V14.01,2013-05-26 09:21:00,
2013-05-26 05:26:00,58.6,55.7,30.16,NW,313,2.0,6.0,90,0.00,,---,0.00,VWS V14.01,2013-05-26 09:26:00,
2013-05-26 05:31:00,58.7,55.8,30.16,NW,313,0.0,2.0,90,0.00,,---,0.00,VWS V14.01,2013-05-26 09:31:00,
2013-05-26 05:36:00,58.9,56.0,30.17,WNW,295,2.0,4.0,90,0.00,,---,0.00,VWS V14.01,2013-05-26 09:36:00,
2013-05-26 05:41:00,59.1,56.2,30.16,West,266,6.0,6.0,90,0.00,,---,0.00,VWS V14.01,2013-05-26 09:41:00,
2013-05-26 05:46:00,59.1,55.5,30.17,SW,229,3.0,7.0,88,0.00,,---,0.00,VWS V14.01,2013-05-26 09:46:00,
2013-05-26 05:51:00,59.1,55.5,30.17,SW,226,3.0,7.0,88,0.00,,---,0.00,VWS V14.01,2013-05-26 09:51:00,
2013-05-26 05:56:00,59.3,55.8,30.17,West,265,0.0,7.0,88,0.00,,---,0.00,VWS V14.01,2013-05-26 09:56:00,
2013-05-26 06:01:00,59.5,55.6,30.17,West,273,4.0,5.0,87,0.00,,---,0.00,VWS V14.01,2013-05-26 10:01:00,
2013-05-26 06:07:00,59.9,55.7,30.17,West,260,4.0,6.0,86,0.00,,---,0.00,VWS V14.01,2013-05-26 10:07:00,
2013-05-26 06:12:00,60.0,55.5,30.17,West,261,2.0,6.0,85,0.00,,---,0.00,VWS V14.01,2013-05-26 10:12:00,
2013-05-26 06:17:00,60.2,54.7,30.17,West,275,5.0,6.0,82,0.00,,---,0.00,VWS V14.01,2013-05-26 10:17:00,
2013-05-26 06:22:00,60.5,54.7,30.18,WNW,283,4.0,6.0,81,0.00,,---,0.00,VWS V14.01,2013-05-26 10:22:00,
2013-05-26 06:27:00,60.6,54.4,30.18,WNW,283,4.0,6.0,80,0.00,,---,0.00,VWS V14.01,2013-05-26 10:27:00,
2013-05-26 06:32:00,60.7,54.5,30.18,West,270,4.0,6.0,80,0.00,,---,0.00,VWS V14.01,2013-05-26 10:32:00,
2013-05-26 06:37:00,60.7,54.5,30.19,West,280,5.0,6.0,80,0.00,,---,0.00,VWS V14.01,2013-05-26 10:37:00,
2013-05-26 06:42:00,60.7,54.5,30.19,WNW,284,4.0,6.0,80,0.00,,---,0.00,VWS V14.01,2013-05-26 10:42:00,
2013-05-26 06:47:00,60.6,54.8,30.19,WNW,295,2.0,6.0,81,0.00,,---,0.00,VWS V14.01,2013-05-26 10:47:00,
2013-05-26 06:52:00,60.4,54.2,30.19,WNW,298,0.0,6.0,80,0.00,,---,0.00,VWS V14.01,2013-05-26 10:52:00,
2013-05-26 06:57:00,60.3,54.5,30.19,NW,309,3.0,6.0,81,0.00,,---,0.00,VWS V14.01,2013-05-26 10:57:00,
2013-05-26 07:02:00,60.2,54.4,30.19,NW,309,3.0,5.0,81,0.00,,---,0.00,VWS V14.01,2013-05-26 11:02:00,
2013-05-26 07:07:00,60.1,54.3,30.19,NW,307,4.0,5.0,81,0.00,,---,0.00,VWS V14.01,2013-05-26 11:07:00,
2013-05-26 07:12:00,60.2,54.7,30.20,WNW,300,6.0,6.0,82,0.00,,---,0.00,VWS V14.01,2013-05-26 11:12:00,
2013-05-26 07:17:00,60.0,54.5,30.20,WNW,302,5.0,6.0,82,0.00,,---,0.00,VWS V14.01,2013-05-26 11:17:00,
2013-05-26 07:22:00,59.9,54.4,30.20,WNW,296,4.0,6.0,82,0.00,,---,0.00,VWS V14.01,2013-05-26 11:22:00,
2013-05-26 07:27:00,59.9,54.7,30.20,NW,306,4.0,5.0,83,0.00,,---,0.00,VWS V14.01,2013-05-26 11:27:00,
2013-05-26 07:32:00,59.8,54.6,30.20,NW,310,7.0,7.0,83,0.00,,---,0.00,VWS V14.01,2013-05-26 11:32:00,
2013-05-26 07:37:00,59.9,55.1,30.20,WNW,282,7.0,7.0,84,0.00,,---,0.00,VWS V14.01,2013-05-26 11:37:00,
2013-05-26 07:42:00,59.8,55.3,30.20,WNW,296,7.0,9.0,85,0.00,,---,0.00,VWS V14.01,2013-05-26 11:42:00,
2013-05-26 07:48:00,59.9,55.7,30.20,WNW,292,9.0,10.0,86,0.00,,---,0.00,VWS V14.01,2013-05-26 11:48:00,
2013-05-26 07:52:00,59.8,55.6,30.20,WNW,287,7.0,10.0,86,0.00,,---,0.00,VWS V14.01,2013-05-26 11:52:00,
2013-05-26 07:58:00,59.7,55.5,30.20,WNW,292,9.0,9.0,86,0.00,,---,0.00,VWS V14.01,2013-05-26 11:58:00,
2013-05-26 08:03:00,59.8,55.6,30.21,NW,317,7.0,9.0,86,0.00,,---,0.00,VWS V14.01,2013-05-26 12:03:00,
2013-05-26 08:08:00,59.6,54.8,30.20,NW,326,9.0,10.0,84,0.00,,---,0.00,VWS V14.01,2013-05-26 12:08:00,
2013-05-26 08:13:00,59.7,54.9,30.21,NNW,333,10.0,10.0,84,0.00,,---,0.00,VWS V14.01,2013-05-26 12:13:00,
2013-05-26 08:18:00,59.4,54.6,30.21,NNW,328,9.0,11.0,84,0.00,,---,0.00,VWS V14.01,2013-05-26 12:18:00,
2013-05-26 08:23:00,59.3,54.5,30.21,NW,325,9.0,11.0,84,0.00,,---,0.00,VWS V14.01,2013-05-26 12:23:00,
2013-05-26 08:28:00,59.4,54.6,30.21,NNW,331,7.0,8.0,84,0.00,,---,0.00,VWS V14.01,2013-05-26 12:28:00,
2013-05-26 08:33:00,59.5,54.7,30.21,NNW,334,9.0,10.0,84,0.00,,---,0.00,VWS V14.01,2013-05-26 12:33:00,
2013-05-26 08:38:00,59.6,54.8,30.21,NNW,342,6.0,10.0,84,0.00,,---,0.00,VWS V14.01,2013-05-26 12:38:00,
2013-05-26 08:43:00,59.8,55.0,30.21,NNW,342,7.0,10.0,84,0.00,,---,0.00,VWS V14.01,2013-05-26 12:43:00,
2013-05-26 08:48:00,59.7,54.2,30.21,NNW,339,9.0,11.0,82,0.00,,---,0.00,VWS V14.01,2013-05-26 12:48:00,
2013-05-26 08:53:00,60.1,54.9,30.21,NNW,337,7.0,11.0,83,0.00,,---,0.00,VWS V14.01,2013-05-26 12:53:00,
2013-05-26 08:58:00,60.1,54.6,30.21,North,355,6.0,9.0,82,0.00,,---,0.00,VWS V14.01,2013-05-26 12:58:00,
2013-05-26 09:03:00,59.9,54.1,30.21,NNW,348,5.0,9.0,81,0.00,,---,0.00,VWS V14.01,2013-05-26 13:03:00,
2013-05-26 09:08:00,60.1,54.3,30.21,NNW,344,5.0,9.0,81,0.00,,---,0.00,VWS V14.01,2013-05-26 13:08:00,
2013-05-26 09:14:00,60.3,54.5,30.21,NNW,332,4.0,9.0,81,0.00,,---,0.00,VWS V14.01,2013-05-26 13:14:00,
2013-05-26 09:19:00,60.6,54.8,30.21,North,360,5.0,9.0,81,0.00,,---,0.00,VWS V14.01,2013-05-26 13:19:00,
2013-05-26 09:24:00,60.7,54.8,30.21,North,355,5.0,9.0,81,0.00,,---,0.00,VWS V14.01,2013-05-26 13:24:00,
2013-05-26 09:29:00,61.0,55.1,30.21,NNW,348,5.0,7.0,81,0.00,,---,0.00,VWS V14.01,2013-05-26 13:29:00,
2013-05-26 09:34:00,61.1,54.5,30.21,North,5,4.0,7.0,79,0.00,,---,0.00,VWS V14.01,2013-05-26 13:34:00,
2013-05-26 09:39:00,61.3,54.4,30.22,North,355,5.0,7.0,78,0.00,,---,0.00,VWS V14.01,2013-05-26 13:39:00,
2013-05-26 09:44:00,61.5,54.2,30.22,North,355,6.0,7.0,77,0.00,,---,0.00,VWS V14.01,2013-05-26 13:44:00,
2013-05-26 09:49:00,61.7,54.8,30.22,NW,321,7.0,10.0,78,0.00,,---,0.00,VWS V14.01,2013-05-26 13:49:00,
2013-05-26 09:54:00,61.7,54.8,30.22,North,355,5.0,10.0,78,0.00,,---,0.00,VWS V14.01,2013-05-26 13:54:00,
2013-05-26 09:59:00,61.8,54.9,30.22,North,355,7.0,10.0,78,0.00,,---,0.00,VWS V14.01,2013-05-26 13:59:00,
2013-05-26 10:04:00,61.8,54.9,30.22,NNW,346,10.0,11.0,78,0.00,,---,0.00,VWS V14.01,2013-05-26 14:04:00,
2013-05-26 10:09:00,61.9,55.3,30.23,NNW,345,9.0,12.0,79,0.00,,---,0.00,VWS V14.01,2013-05-26 14:09:00,
2013-05-26 10:14:00,61.7,54.8,30.23,NNW,341,12.0,14.0,78,0.00,,---,0.00,VWS V14.01,2013-05-26 14:14:00,
2013-05-26 10:20:00,61.6,55.0,30.23,North,350,11.0,14.0,79,0.00,,---,0.00,VWS V14.01,2013-05-26 14:20:00,
2013-05-26 10:25:00,61.4,54.8,30.23,NNW,340,13.0,15.0,79,0.00,,---,0.00,VWS V14.01,2013-05-26 14:25:00,
2013-05-26 10:30:00,61.0,53.8,30.24,NNW,329,14.0,16.0,77,0.00,,---,0.00,VWS V14.01,2013-05-26 14:30:00,
2013-05-26 10:35:00,60.8,53.9,30.24,North,355,7.0,16.0,78,0.00,,---,0.00,VWS V14.01,2013-05-26 14:35:00,
2013-05-26 10:40:00,60.8,53.5,30.23,NNW,345,8.0,16.0,77,0.00,,---,0.00,VWS V14.01,2013-05-26 14:40:00,
2013-05-26 10:45:00,60.8,52.8,30.23,NNW,346,10.0,16.0,75,0.00,,---,0.00,VWS V14.01,2013-05-26 14:45:00,
2013-05-26 10:50:00,61.0,53.0,30.24,North,360,6.0,16.0,75,0.00,,---,0.00,VWS V14.01,2013-05-26 14:50:00,
2013-05-26 10:55:00,61.1,52.8,30.23,North,355,6.0,16.0,74,0.00,,---,0.00,VWS V14.01,2013-05-26 14:55:00,
2013-05-26 11:00:00,61.1,52.4,30.24,North,360,8.0,9.0,73,0.00,,---,0.00,VWS V14.01,2013-05-26 15:00:00,
2013-05-26 11:05:00,61.4,53.0,30.23,North,349,6.0,10.0,74,0.00,,---,0.00,VWS V14.01,2013-05-26 15:05:00,
2013-05-26 11:10:00,61.4,53.0,30.23,NNW,332,9.0,10.0,74,0.00,,---,0.00,VWS V14.01,2013-05-26 15:10:00,
2013-05-26 11:15:00,61.5,53.2,30.24,NNW,342,9.0,12.0,74,0.00,,---,0.00,VWS V14.01,2013-05-26 15:15:00,
2013-05-26 11:21:00,61.6,53.2,30.23,NW,324,9.0,12.0,74,0.00,,---,0.00,VWS V14.01,2013-05-26 15:21:00,
2013-05-26 11:26:00,61.7,53.3,30.24,NNW,348,7.0,12.0,74,0.00,,---,0.00,VWS V14.01,2013-05-26 15:26:00,
2013-05-26 11:31:00,61.7,53.3,30.23,NNW,332,3.0,7.0,74,0.00,,---,0.00,VWS V14.01,2013-05-26 15:31:00,
2013-05-26 11:36:00,61.7,53.0,30.23,NNW,331,5.0,7.0,73,0.00,,---,0.00,VWS V14.01,2013-05-26 15:36:00,
2013-05-26 11:41:00,62.2,54.2,30.24,NNW,331,10.0,10.0,75,0.00,,---,0.00,VWS V14.01,2013-05-26 15:41:00,
2013-05-26 11:46:00,62.2,53.5,30.23,North,5,6.0,10.0,73,0.00,,---,0.00,VWS V14.01,2013-05-26 15:46:00,
2013-05-26 11:51:00,62.3,53.5,30.23,North,5,6.0,10.0,73,0.00,,---,0.00,VWS V14.01,2013-05-26 15:51:00,
2013-05-26 11:56:00,62.3,53.5,30.23,NNW,340,6.0,10.0,73,0.00,,---,0.00,VWS V14.01,2013-05-26 15:56:00,
2013-05-26 12:01:00,62.5,53.7,30.23,North,360,9.0,10.0,73,0.00,,---,0.00,VWS V14.01,2013-05-26 16:01:00,
2013-05-26 12:06:00,62.6,53.8,30.23,NNW,338,5.0,10.0,73,0.00,,---,0.00,VWS V14.01,2013-05-26 16:06:00,
2013-05-26 12:11:00,62.7,54.3,30.24,NNW,347,6.0,11.0,74,0.00,,---,0.00,VWS V14.01,2013-05-26 16:11:00,
2013-05-26 12:16:00,62.9,54.1,30.23,NNE,15,10.0,11.0,73,0.00,,---,0.00,VWS V14.01,2013-05-26 16:16:00,
2013-05-26 12:21:00,63.0,54.2,30.23,NNE,23,4.0,11.0,73,0.00,,---,0.00,VWS V14.01,2013-05-26 16:21:00,
2013-05-26 12:27:00,63.3,54.5,30.23,North,10,4.0,11.0,73,0.00,,---,0.00,VWS V14.01,2013-05-26 16:27:00,
2013-05-26 12:32:00,63.5,54.3,30.23,North,360,4.0,6.0,72,0.00,,---,0.00,VWS V14.01,2013-05-26 16:32:00,
2013-05-26 12:37:00,63.8,54.6,30.23,North,351,5.0,6.0,72,0.00,,---,0.00,VWS V14.01,2013-05-26 16:37:00,
2013-05-26 12:42:00,63.9,54.3,30.23,North,11,2.0,6.0,71,0.00,,---,0.00,VWS V14.01,2013-05-26 16:42:00,
2013-05-26 12:47:00,64.2,54.6,30.23,NNE,17,4.0,6.0,71,0.00,,---,0.00,VWS V14.01,2013-05-26 16:47:00,
2013-05-26 12:52:00,64.5,54.9,30.22,NNE,22,0.0,6.0,71,0.00,,---,0.00,VWS V14.01,2013-05-26 16:52:00,
2013-05-26 12:57:00,64.9,54.9,30.23,NNW,335,4.0,6.0,70,0.00,,---,0.00,VWS V14.01,2013-05-26 16:57:00,
2013-05-26 13:02:00,65.1,54.7,30.22,NNW,335,2.0,3.0,69,0.00,,---,0.00,VWS V14.01,2013-05-26 17:02:00,
2013-05-26 13:07:00,65.4,54.2,30.22,North,350,6.0,6.0,67,0.00,,---,0.00,VWS V14.01,2013-05-26 17:07:00,
2013-05-26 13:12:00,65.5,53.4,30.22,NNE,19,4.0,7.0,65,0.00,,---,0.00,VWS V14.01,2013-05-26 17:12:00,
2013-05-26 13:17:00,65.7,54.0,30.21,NNE,21,2.0,7.0,66,0.00,,---,0.00,VWS V14.01,2013-05-26 17:17:00,
2013-05-26 13:22:00,66.0,54.3,30.21,NNE,21,1.0,7.0,66,0.00,,---,0.00,VWS V14.01,2013-05-26 17:22:00,
2013-05-26 13:27:00,66.4,54.3,30.21,NNE,20,0.0,0.0,65,0.00,,---,0.00,VWS V14.01,2013-05-26 17:27:00,
2013-05-26 13:33:00,66.9,54.3,30.21,NNE,13,0.0,3.0,64,0.00,,---,0.00,VWS V14.01,2013-05-26 17:33:00,
2013-05-26 13:38:00,66.9,54.3,30.21,NNW,333,2.0,5.0,64,0.00,,---,0.00,VWS V14.01,2013-05-26 17:38:00,
2013-05-26 13:43:00,66.8,54.2,30.21,North,360,1.0,5.0,64,0.00,,---,0.00,VWS V14.01,2013-05-26 17:43:00,
2013-05-26 13:48:00,67.0,54.9,30.21,North,5,0.0,5.0,65,0.00,,---,0.00,VWS V14.01,2013-05-26 17:48:00,
2013-05-26 13:53:00,67.5,55.8,30.21,SW,219,0.0,5.0,66,0.00,,---,0.00,VWS V14.01,2013-05-26 17:53:00,
2013-05-26 13:58:00,67.9,55.7,30.21,SW,219,1.0,1.0,65,0.00,,---,0.00,VWS V14.01,2013-05-26 17:58:00,
2013-05-26 14:03:00,67.8,56.5,30.21,SSW,209,3.0,3.0,67,0.00,,---,0.00,VWS V14.01,2013-05-26 18:03:00,
2013-05-26 14:08:00,67.8,56.5,30.21,SE,138,1.0,5.0,67,0.00,,---,0.00,VWS V14.01,2013-05-26 18:08:00,
2013-05-26 14:13:00,67.7,56.4,30.21,NNE,15,3.0,5.0,67,0.00,,---,0.00,VWS V14.01,2013-05-26 18:13:00,
2013-05-26 14:18:00,67.2,55.5,30.21,North,355,6.0,9.0,66,0.00,,---,0.00,VWS V14.01,2013-05-26 18:18:00,
2013-05-26 14:23:00,67.1,53.7,30.20,NNW,343,7.0,9.0,62,0.00,,---,0.00,VWS V14.01,2013-05-26 18:23:00,
2013-05-26 14:28:00,67.0,53.6,30.21,NNW,341,5.0,7.0,62,0.00,,---,0.00,VWS V14.01,2013-05-26 18:28:00,
2013-05-26 14:34:00,67.0,54.0,30.21,North,350,5.0,7.0,63,0.00,,---,0.00,VWS V14.01,2013-05-26 18:34:00,
2013-05-26 14:39:00,67.0,53.1,30.20,NNW,336,5.0,7.0,61,0.00,,---,0.00,VWS V14.01,2013-05-26 18:39:00,
2013-05-26 14:44:00,67.0,53.1,30.21,NW,319,9.0,11.0,61,0.00,,---,0.00,VWS V14.01,2013-05-26 18:44:00,
2013-05-26 14:49:00,67.0,53.6,30.20,North,355,6.0,11.0,62,0.00,,---,0.00,VWS V14.01,2013-05-26 18:49:00,
2013-05-26 14:54:00,67.0,53.6,30.20,NW,323,10.0,11.0,62,0.00,,---,0.00,VWS V14.01,2013-05-26 18:54:00,
2013-05-26 14:59:00,67.0,51.8,30.20,NNW,333,9.0,9.0,58,0.00,,---,0.00,VWS V14.01,2013-05-26 18:59:00,
2013-05-26 15:04:00,67.2,52.4,30.20,North,355,5.0,10.0,59,0.00,,---,0.00,VWS V14.01,2013-05-26 19:04:00,
2013-05-26 15:09:00,67.4,51.7,30.20,NW,306,6.0,10.0,57,0.00,,---,0.00,VWS V14.01,2013-05-26 19:09:00,
2013-05-26 15:14:00,67.4,50.7,30.19,NNW,331,7.0,11.0,55,0.00,,---,0.00,VWS V14.01,2013-05-26 19:14:00,
2013-05-26 15:19:00,67.6,50.9,30.19,NNW,332,7.0,11.0,55,0.00,,---,0.00,VWS V14.01,2013-05-26 19:19:00,
2013-05-26 15:24:00,67.6,51.8,30.19,NNW,337,7.0,11.0,57,0.00,,---,0.00,VWS V14.01,2013-05-26 19:24:00,
2013-05-26 15:29:00,67.6,51.8,30.19,NNW,332,3.0,8.0,57,0.00,,---,0.00,VWS V14.01,2013-05-26 19:29:00,
2013-05-26 15:34:00,67.7,51.9,30.18,NW,315,7.0,12.0,57,0.00,,---,0.00,VWS V14.01,2013-05-26 19:34:00,
2013-05-26 15:40:00,67.8,51.5,30.18,NW,323,3.0,12.0,56,0.00,,---,0.00,VWS V14.01,2013-05-26 19:40:00,
2013-05-26 15:45:00,67.8,50.6,30.18,WNW,288,4.0,12.0,54,0.00,,---,0.00,VWS V14.01,2013-05-26 19:45:00,
2013-05-26 15:50:00,67.9,49.7,30.18,NW,320,4.0,12.0,52,0.00,,---,0.00,VWS V14.01,2013-05-26 19:50:00,
2013-05-26 15:55:00,68.0,50.8,30.18,WNW,294,3.0,12.0,54,0.00,,---,0.00,VWS V14.01,2013-05-26 19:55:00,
2013-05-26 16:00:00,68.1,50.8,30.18,WNW,292,4.0,6.0,54,0.00,,---,0.00,VWS V14.01,2013-05-26 20:00:00,
2013-05-26 16:05:00,68.2,50.4,30.18,WNW,294,6.0,9.0,53,0.00,,---,0.00,VWS V14.01,2013-05-26 20:05:00,
2013-05-26 16:10:00,68.2,48.9,30.18,WNW,297,3.0,9.0,50,0.00,,---,0.00,VWS V14.01,2013-05-26 20:10:00,
2013-05-26 16:15:00,68.4,49.6,30.18,NW,321,6.0,10.0,51,0.00,,---,0.00,VWS V14.01,2013-05-26 20:15:00,
2013-05-26 16:20:00,68.4,49.1,30.18,NW,305,10.0,10.0,50,0.00,,---,0.00,VWS V14.01,2013-05-26 20:20:00,
2013-05-26 16:25:00,68.4,50.1,30.18,WNW,300,9.0,12.0,52,0.00,,---,0.00,VWS V14.01,2013-05-26 20:25:00,
2013-05-26 16:30:00,68.4,51.1,30.18,NW,316,10.0,13.0,54,0.00,,---,0.00,VWS V14.01,2013-05-26 20:30:00,
2013-05-26 16:35:00,68.3,51.0,30.18,NNW,329,6.0,13.0,54,0.00,,---,0.00,VWS V14.01,2013-05-26 20:35:00,
2013-05-26 16:40:00,68.3,51.0,30.18,NNW,332,11.0,13.0,54,0.00,,---,0.00,VWS V14.01,2013-05-26 20:40:00,
2013-05-26 16:45:00,68.3,51.5,30.19,NNW,342,11.0,13.0,55,0.00,,---,0.00,VWS V14.01,2013-05-26 20:45:00,
2013-05-26 16:51:00,68.2,51.4,30.19,NNW,342,7.0,13.0,55,0.00,,---,0.00,VWS V14.01,2013-05-26 20:51:00,
2013-05-26 16:56:00,68.1,52.3,30.19,NNW,327,7.0,13.0,57,0.00,,---,0.00,VWS V14.01,2013-05-26 20:56:00,
2013-05-26 17:01:00,68.0,50.8,30.19,NW,323,10.0,13.0,54,0.00,,---,0.00,VWS V14.01,2013-05-26 21:01:00,
2013-05-26 17:06:00,67.9,52.1,30.19,NNW,328,11.0,14.0,57,0.00,,---,0.00,VWS V14.01,2013-05-26 21:06:00,
2013-05-26 17:11:00,67.9,53.1,30.18,WNW,303,9.0,14.0,59,0.00,,---,0.00,VWS V14.01,2013-05-26 21:11:00,
2013-05-26 17:16:00,67.8,52.0,30.18,NW,305,7.0,14.0,57,0.00,,---,0.00,VWS V14.01,2013-05-26 21:16:00,
2013-05-26 17:21:00,67.7,52.9,30.18,NW,309,6.0,14.0,59,0.00,,---,0.00,VWS V14.01,2013-05-26 21:21:00,
2013-05-26 17:26:00,67.7,52.9,30.18,NW,311,7.0,14.0,59,0.00,,---,0.00,VWS V14.01,2013-05-26 21:26:00,
2013-05-26 17:31:00,67.7,52.9,30.18,WNW,294,10.0,10.0,59,0.00,,---,0.00,VWS V14.01,2013-05-26 21:31:00,
2013-05-26 17:36:00,67.7,52.9,30.18,WNW,302,10.0,11.0,59,0.00,,---,0.00,VWS V14.01,2013-05-26 21:36:00,
2013-05-26 17:41:00,67.9,53.5,30.18,WNW,303,11.0,11.0,60,0.00,,---,0.00,VWS V14.01,2013-05-26 21:41:00,
2013-05-26 17:47:00,68.2,52.4,30.18,WNW,292,9.0,11.0,57,0.00,,---,0.00,VWS V14.01,2013-05-26 21:47:00,
2013-05-26 17:52:00,68.3,51.5,30.18,NW,309,8.0,13.0,55,0.00,,---,0.00,VWS V14.01,2013-05-26 21:52:00,
2013-05-26 17:57:00,68.6,51.8,30.18,NW,316,7.0,13.0,55,0.00,,---,0.00,VWS V14.01,2013-05-26 21:57:00,
2013-05-26 18:02:00,68.9,52.6,30.18,WNW,295,10.0,12.0,56,0.00,,---,0.00,VWS V14.01,2013-05-26 22:02:00,
2013-05-26 18:07:00,69.0,51.2,30.18,NW,312,9.0,12.0,53,0.00,,---,0.00,VWS V14.01,2013-05-26 22:07:00,
2013-05-26 18:12:00,69.0,50.7,30.18,NW,307,9.0,13.0,52,0.00,,---,0.00,VWS V14.01,2013-05-26 22:12:00,
2013-05-26 18:17:00,69.0,52.2,30.18,WNW,290,8.0,13.0,55,0.00,,---,0.00,VWS V14.01,2013-05-26 22:17:00,
2013-05-26 18:22:00,69.0,52.7,30.18,WNW,288,7.0,13.0,56,0.00,,---,0.00,VWS V14.01,2013-05-26 22:22:00,
2013-05-26 18:27:00,69.2,52.8,30.18,NW,310,6.0,13.0,56,0.00,,---,0.00,VWS V14.01,2013-05-26 22:27:00,
2013-05-26 18:32:00,69.3,49.9,30.18,NW,310,7.0,13.0,50,0.00,,---,0.00,VWS V14.01,2013-05-26 22:32:00,
2013-05-26 18:37:00,69.4,52.5,30.18,WNW,299,9.0,13.0,55,0.00,,---,0.00,VWS V14.01,2013-05-26 22:37:00,
2013-05-26 18:42:00,69.5,53.1,30.19,NNW,342,9.0,13.0,56,0.00,,---,0.00,VWS V14.01,2013-05-26 22:42:00,
2013-05-26 18:47:00,69.4,51.5,30.18,NW,317,11.0,13.0,53,0.00,,---,0.00,VWS V14.01,2013-05-26 22:47:00,
2013-05-26 18:52:00,69.2,51.9,30.18,NW,310,10.0,13.0,54,0.00,,---,0.00,VWS V14.01,2013-05-26 22:52:00,
2013-05-26 18:58:00,69.2,52.8,30.18,NW,309,6.0,9.0,56,0.00,,---,0.00,VWS V14.01,2013-05-26 22:58:00,
2013-05-26 19:03:00,69.1,51.8,30.18,NNW,333,10.0,12.0,54,0.00,,---,0.00,VWS V14.01,2013-05-26 23:03:00,
2013-05-26 19:08:00,68.9,52.6,30.18,NW,323,7.0,12.0,56,0.00,,---,0.00,VWS V14.01,2013-05-26 23:08:00,
2013-05-26 19:13:00,69.0,53.6,30.18,NW,317,5.0,12.0,58,0.00,,---,0.00,VWS V14.01,2013-05-26 23:13:00,
2013-05-26 19:18:00,69.0,54.1,30.19,NW,315,7.0,12.0,59,0.00,,---,0.00,VWS V14.01,2013-05-26 23:18:00,
2013-05-26 19:23:00,69.0,53.6,30.19,NW,309,6.0,12.0,58,0.00,,---,0.00,VWS V14.01,2013-05-26 23:23:00,
2013-05-26 19:28:00,69.0,53.6,30.19,NW,306,6.0,7.0,58,0.00,,---,0.00,VWS V14.01,2013-05-26 23:28:00,
2013-05-26 19:33:00,68.9,53.5,30.19,NW,309,7.0,10.0,58,0.00,,---,0.00,VWS V14.01,2013-05-26 23:33:00,
2013-05-26 19:38:00,68.8,53.9,30.19,NW,304,7.0,10.0,59,0.00,,---,0.00,VWS V14.01,2013-05-26 23:38:00,
2013-05-26 19:43:00,68.5,54.1,30.19,NW,304,9.0,10.0,60,0.00,,---,0.00,VWS V14.01,2013-05-26 23:43:00,
2013-05-26 19:48:00,68.4,55.3,30.19,NW,311,6.0,10.0,63,0.00,,---,0.00,VWS V14.01,2013-05-26 23:48:00,
2013-05-26 19:53:00,68.3,54.8,30.19,NW,308,7.0,10.0,62,0.00,,---,0.00,VWS V14.01,2013-05-26 23:53:00,
2013-05-26 19:59:00,68.0,55.0,30.19,NW,306,5.0,7.0,63,0.00,,---,0.00,VWS V14.01,2013-05-26 23:59:00,
2013-05-26 20:04:00,67.7,55.1,30.20,NW,306,4.0,7.0,64,0.00,,---,0.00,VWS V14.01,2013-05-27 00:04:00,
2013-05-26 20:09:00,67.5,55.3,30.19,NW,306,5.0,7.0,65,0.00,,---,0.00,VWS V14.01,2013-05-27 00:09:00,
2013-05-26 20:14:00,67.2,55.9,30.19,NW,306,5.0,7.0,67,0.00,,---,0.00,VWS V14.01,2013-05-27 00:14:00,
2013-05-26 20:19:00,67.0,55.7,30.19,NW,306,5.0,7.0,67,0.00,,---,0.00,VWS V14.01,2013-05-27 00:19:00,
2013-05-26 20:24:00,66.9,56.0,30.19,NW,306,4.0,7.0,68,0.00,,---,0.00,VWS V14.01,2013-05-27 00:24:00,
2013-05-26 20:29:00,66.8,55.9,30.19,NW,306,4.0,4.0,68,0.00,,---,0.00,VWS V14.01,2013-05-27 00:29:00,
2013-05-26 20:34:00,66.7,55.8,30.20,NW,306,2.0,4.0,68,0.00,,---,0.00,VWS V14.01,2013-05-27 00:34:00,
2013-05-26 20:39:00,66.7,56.2,30.20,NW,306,4.0,4.0,69,0.00,,---,0.00,VWS V14.01,2013-05-27 00:39:00,
2013-05-26 20:44:00,66.5,56.4,30.20,NW,306,3.0,4.0,70,0.00,,---,0.00,VWS V14.01,2013-05-27 00:44:00,
2013-05-26 20:49:00,66.5,56.8,30.20,NW,306,3.0,4.0,71,0.00,,---,0.00,VWS V14.01,2013-05-27 00:49:00,
2013-05-26 20:55:00,66.3,56.6,30.20,NW,306,3.0,4.0,71,0.00,,---,0.00,VWS V14.01,2013-05-27 00:55:00,
2013-05-26 21:00:00,66.1,56.4,30.20,NW,306,3.0,4.0,71,0.00,,---,0.00,VWS V14.01,2013-05-27 01:00:00,
2013-05-26 21:05:00,66.1,56.8,30.20,NW,306,3.0,4.0,72,0.00,,---,0.00,VWS V14.01,2013-05-27 01:05:00,
2013-05-26 21:10:00,66.0,57.1,30.20,NW,306,4.0,4.0,73,0.00,,---,0.00,VWS V14.01,2013-05-27 01:10:00,
2013-05-26 21:15:00,65.9,57.0,30.20,NW,306,4.0,5.0,73,0.00,,---,0.00,VWS V14.01,2013-05-27 01:15:00,
2013-05-26 21:20:00,65.9,57.4,30.21,NW,306,3.0,5.0,74,0.00,,---,0.00,VWS V14.01,2013-05-27 01:20:00,
2013-05-26 21:25:00,65.8,57.7,30.21,NW,306,2.0,5.0,75,0.00,,---,0.00,VWS V14.01,2013-05-27 01:25:00,
2013-05-26 21:30:00,65.7,57.6,30.21,NW,306,2.0,3.0,75,0.00,,---,0.00,VWS V14.01,2013-05-27 01:30:00,
2013-05-26 21:35:00,65.6,57.5,30.21,NW,306,1.0,3.0,75,0.00,,---,0.00,VWS V14.01,2013-05-27 01:35:00,
2013-05-26 21:40:00,65.6,57.1,30.21,NW,306,0.0,3.0,74,0.00,,---,0.00,VWS V14.01,2013-05-27 01:40:00,
2013-05-26 21:45:00,65.6,57.1,30.21,NW,306,0.0,3.0,74,0.00,,---,0.00,VWS V14.01,2013-05-27 01:45:00,
2013-05-26 21:50:00,65.6,57.1,30.21,NW,306,0.0,3.0,74,0.00,,---,0.00,VWS V14.01,2013-05-27 01:50:00,
2013-05-26 21:56:00,65.5,57.0,30.21,NW,306,0.0,3.0,74,0.00,,---,0.00,VWS V14.01,2013-05-27 01:56:00,
2013-05-26 22:01:00,65.4,57.3,30.21,NW,306,0.0,0.0,75,0.00,,---,0.00,VWS V14.01,2013-05-27 02:01:00,
2013-05-26 22:06:00,65.3,57.2,30.21,NW,306,0.0,0.0,75,0.00,,---,0.00,VWS V14.01,2013-05-27 02:06:00,
2013-05-26 22:11:00,65.0,56.5,30.22,NW,306,0.0,0.0,74,0.00,,---,0.00,VWS V14.01,2013-05-27 02:11:00,
2013-05-26 22:16:00,64.8,56.3,30.22,NW,306,0.0,0.0,74,0.00,,---,0.00,VWS V14.01,2013-05-27 02:16:00,
2013-05-26 22:21:00,64.8,57.1,30.22,NW,306,0.0,0.0,76,0.00,,---,0.00,VWS V14.01,2013-05-27 02:21:00,
2013-05-26 22:26:00,65.1,57.4,30.22,NW,306,2.0,2.0,76,0.00,,---,0.00,VWS V14.01,2013-05-27 02:26:00,
2013-05-26 22:31:00,65.4,56.9,30.22,NW,306,2.0,2.0,74,0.00,,---,0.00,VWS V14.01,2013-05-27 02:31:00,
2013-05-26 22:36:00,65.8,57.3,30.22,NNW,342,1.0,3.0,74,0.00,,---,0.00,VWS V14.01,2013-05-27 02:36:00,
2013-05-26 22:41:00,66.1,58.3,30.21,NNW,342,0.0,3.0,76,0.00,,---,0.00,VWS V14.01,2013-05-27 02:41:00,
2013-05-26 22:46:00,65.6,57.5,30.22,NNW,342,1.0,3.0,75,0.00,,---,0.00,VWS V14.01,2013-05-27 02:46:00,
2013-05-26 22:52:00,65.4,56.9,30.22,NNW,342,1.0,3.0,74,0.00,,---,0.00,VWS V14.01,2013-05-27 02:52:00,
2013-05-26 22:57:00,65.5,57.0,30.22,NNW,342,0.0,3.0,74,0.00,,---,0.00,VWS V14.01,2013-05-27 02:57:00,
2013-05-26 23:02:00,65.7,57.6,30.22,NNW,342,0.0,1.0,75,0.00,,---,0.00,VWS V14.01,2013-05-27 03:02:00,
2013-05-26 23:07:00,65.4,56.9,30.22,NNW,342,2.0,2.0,74,0.00,,---,0.00,VWS V14.01,2013-05-27 03:07:00,
2013-05-26 23:12:00,65.2,56.0,30.23,NNW,342,1.0,3.0,72,0.00,,---,0.00,VWS V14.01,2013-05-27 03:12:00,
2013-05-26 23:17:00,65.2,55.6,30.23,NNW,344,2.0,3.0,71,0.00,,---,0.00,VWS V14.01,2013-05-27 03:17:00,
2013-05-26 23:22:00,65.5,57.0,30.23,NNW,346,1.0,3.0,74,0.00,,---,0.00,VWS V14.01,2013-05-27 03:22:00,
2013-05-26 23:27:00,65.4,56.9,30.22,NNW,346,1.0,3.0,74,0.00,,---,0.00,VWS V14.01,2013-05-27 03:27:00,
2013-05-26 23:32:00,65.0,56.5,30.22,NNW,346,2.0,3.0,74,0.00,,---,0.00,VWS V14.01,2013-05-27 03:32:00,
2013-05-26 23:37:00,64.8,56.7,30.22,NNW,348,2.0,3.0,75,0.00,,---,0.00,VWS V14.01,2013-05-27 03:37:00,
2013-05-26 23:43:00,64.7,56.6,30.22,NNW,348,0.0,3.0,75,0.00,,---,0.00,VWS V14.01,2013-05-27 03:43:00,
2013-05-26 23:48:00,64.5,56.4,30.22,NNW,348,0.0,3.0,75,0.00,,---,0.00,VWS V14.01,2013-05-27 03:48:00,
2013-05-26 23:53:00,64.4,56.3,30.22,NNW,348,2.0,3.0,75,0.00,,---,0.00,VWS V14.01,2013-05-27 03:53:00,
2013-05-26 23:58:00,64.4,55.9,30.22,NNW,348,1.0,2.0,74,0.00,,---,0.00,VWS V14.01,2013-05-27 03:58:00,